sensor_id;sensor_type;location;lat;lon;timestamp;temperature;humidity
70550;DHT22;58101;48.658;2.328;2023-07-24T00:00:53;20.30;90.40
70550;DHT22;58101;48.658;2.328;2023-07-24T00:03:18;20.20;90.80
70550;DHT22;58101;48.658;2.328;2023-07-24T00:05:44;20.20;91.10
70550;DHT22;58101;48.658;2.328;2023-07-24T00:08:09;20.30;91.20
70550;DHT22;58101;48.658;2.328;2023-07-24T00:10:35;20.20;91.50
70550;DHT22;58101;48.658;2.328;2023-07-24T00:13:01;20.20;91.50
70550;DHT22;58101;48.658;2.328;2023-07-24T00:15:28;20.20;91.60
70550;DHT22;58101;48.658;2.328;2023-07-24T00:17:54;20.20;91.30
70550;DHT22;58101;48.658;2.328;2023-07-24T00:20:20;20.20;91.20
70550;DHT22;58101;48.658;2.328;2023-07-24T00:22:45;20.20;91.10
70550;DHT22;58101;48.658;2.328;2023-07-24T00:25:11;20.20;91.00
70550;DHT22;58101;48.658;2.328;2023-07-24T00:27:37;20.20;91.40
70550;DHT22;58101;48.658;2.328;2023-07-24T00:30:02;20.20;91.10
70550;DHT22;58101;48.658;2.328;2023-07-24T00:32:28;20.20;91.10
70550;DHT22;58101;48.658;2.328;2023-07-24T00:34:54;20.10;91.10
70550;DHT22;58101;48.658;2.328;2023-07-24T00:37:22;20.10;91.60
70550;DHT22;58101;48.658;2.328;2023-07-24T00:39:48;20.00;91.60
70550;DHT22;58101;48.658;2.328;2023-07-24T00:42:13;20.00;91.90
70550;DHT22;58101;48.658;2.328;2023-07-24T00:44:39;20.00;92.10
70550;DHT22;58101;48.658;2.328;2023-07-24T00:47:05;20.00;92.10
70550;DHT22;58101;48.658;2.328;2023-07-24T00:49:30;20.00;92.50
70550;DHT22;58101;48.658;2.328;2023-07-24T00:51:56;20.00;92.10
70550;DHT22;58101;48.658;2.328;2023-07-24T00:54:22;19.90;92.20
70550;DHT22;58101;48.658;2.328;2023-07-24T00:56:48;19.90;91.60
70550;DHT22;58101;48.658;2.328;2023-07-24T00:59:15;19.90;91.60
70550;DHT22;58101;48.658;2.328;2023-07-24T01:01:42;19.90;91.10
70550;DHT22;58101;48.658;2.328;2023-07-24T01:04:08;19.90;91.20
70550;DHT22;58101;48.658;2.328;2023-07-24T01:06:34;19.80;90.40
70550;DHT22;58101;48.658;2.328;2023-07-24T01:08:59;19.80;90.50
70550;DHT22;58101;48.658;2.328;2023-07-24T01:11:28;19.80;91.00
70550;DHT22;58101;48.658;2.328;2023-07-24T01:14:04;19.70;91.10
70550;DHT22;58101;48.658;2.328;2023-07-24T01:16:42;19.70;92.50
70550;DHT22;58101;48.658;2.328;2023-07-24T01:19:33;19.60;94.30
70550;DHT22;58101;48.658;2.328;2023-07-24T01:25:23;19.50;96.20
70550;DHT22;58101;48.658;2.328;2023-07-24T01:27:52;19.40;97.20
70550;DHT22;58101;48.658;2.328;2023-07-24T01:30:19;19.40;97.40
70550;DHT22;58101;48.658;2.328;2023-07-24T01:32:45;19.40;97.30
70550;DHT22;58101;48.658;2.328;2023-07-24T01:35:11;19.40;97.60
70550;DHT22;58101;48.658;2.328;2023-07-24T01:37:37;19.40;97.90
70550;DHT22;58101;48.658;2.328;2023-07-24T01:40:06;19.40;97.90
70550;DHT22;58101;48.658;2.328;2023-07-24T01:42:33;19.40;97.90
70550;DHT22;58101;48.658;2.328;2023-07-24T01:44:59;19.40;98.00
70550;DHT22;58101;48.658;2.328;2023-07-24T01:47:25;19.40;97.80
70550;DHT22;58101;48.658;2.328;2023-07-24T01:49:51;19.40;97.90
70550;DHT22;58101;48.658;2.328;2023-07-24T01:52:18;19.40;98.00
70550;DHT22;58101;48.658;2.328;2023-07-24T01:54:43;19.40;97.70
70550;DHT22;58101;48.658;2.328;2023-07-24T01:57:09;19.30;97.90
70550;DHT22;58101;48.658;2.328;2023-07-24T01:59:34;19.40;97.60
70550;DHT22;58101;48.658;2.328;2023-07-24T02:02:00;19.30;97.80
70550;DHT22;58101;48.658;2.328;2023-07-24T02:04:26;19.30;98.10
70550;DHT22;58101;48.658;2.328;2023-07-24T02:06:51;19.30;97.70
70550;DHT22;58101;48.658;2.328;2023-07-24T02:09:20;19.30;97.70
70550;DHT22;58101;48.658;2.328;2023-07-24T02:11:46;19.30;97.50
70550;DHT22;58101;48.658;2.328;2023-07-24T02:14:13;19.30;97.20
70550;DHT22;58101;48.658;2.328;2023-07-24T02:16:38;19.20;97.60
70550;DHT22;58101;48.658;2.328;2023-07-24T02:19:04;19.20;97.20
70550;DHT22;58101;48.658;2.328;2023-07-24T02:21:30;19.20;96.80
70550;DHT22;58101;48.658;2.328;2023-07-24T02:23:56;19.20;96.60
70550;DHT22;58101;48.658;2.328;2023-07-24T02:26:21;19.20;96.60
70550;DHT22;58101;48.658;2.328;2023-07-24T02:28:47;19.20;99.90
70550;DHT22;58101;48.658;2.328;2023-07-24T02:31:13;19.20;99.90
70550;DHT22;58101;48.658;2.328;2023-07-24T02:33:38;18.80;99.90
70550;DHT22;58101;48.658;2.328;2023-07-24T02:36:04;18.70;99.90
70550;DHT22;58101;48.658;2.328;2023-07-24T02:38:30;18.60;99.90
70550;DHT22;58101;48.658;2.328;2023-07-24T02:40:58;18.60;99.90
70550;DHT22;58101;48.658;2.328;2023-07-24T02:43:24;18.50;99.90
70550;DHT22;58101;48.658;2.328;2023-07-24T02:45:49;18.60;99.90
70550;DHT22;58101;48.658;2.328;2023-07-24T02:48:15;18.50;99.90
70550;DHT22;58101;48.658;2.328;2023-07-24T02:50:41;18.50;99.90
70550;DHT22;58101;48.658;2.328;2023-07-24T02:53:06;18.40;99.90
70550;DHT22;58101;48.658;2.328;2023-07-24T02:55:32;18.40;99.90
70550;DHT22;58101;48.658;2.328;2023-07-24T02:57:57;18.40;99.90
70550;DHT22;58101;48.658;2.328;2023-07-24T03:00:23;18.40;99.90
70550;DHT22;58101;48.658;2.328;2023-07-24T03:02:49;18.30;99.90
70550;DHT22;58101;48.658;2.328;2023-07-24T03:05:15;18.20;99.90
70550;DHT22;58101;48.658;2.328;2023-07-24T03:07:40;18.10;99.90
70550;DHT22;58101;48.658;2.328;2023-07-24T03:10:06;18.00;99.90
70550;DHT22;58101;48.658;2.328;2023-07-24T03:12:33;18.00;99.90
70550;DHT22;58101;48.658;2.328;2023-07-24T03:14:58;17.90;99.90
70550;DHT22;58101;48.658;2.328;2023-07-24T03:17:24;17.90;99.90
70550;DHT22;58101;48.658;2.328;2023-07-24T03:19:50;17.80;99.90
70550;DHT22;58101;48.658;2.328;2023-07-24T03:22:15;17.90;99.90
70550;DHT22;58101;48.658;2.328;2023-07-24T03:24:41;17.80;99.90
70550;DHT22;58101;48.658;2.328;2023-07-24T03:27:07;17.80;99.90
70550;DHT22;58101;48.658;2.328;2023-07-24T03:29:32;17.80;99.90
70550;DHT22;58101;48.658;2.328;2023-07-24T03:31:58;17.80;99.90
70550;DHT22;58101;48.658;2.328;2023-07-24T03:34:23;17.80;99.90
70550;DHT22;58101;48.658;2.328;2023-07-24T03:36:49;17.90;99.90
70550;DHT22;58101;48.658;2.328;2023-07-24T03:39:15;17.60;99.90
70550;DHT22;58101;48.658;2.328;2023-07-24T03:41:42;17.60;99.90
70550;DHT22;58101;48.658;2.328;2023-07-24T03:44:08;17.60;99.90
70550;DHT22;58101;48.658;2.328;2023-07-24T03:46:34;17.60;99.90
70550;DHT22;58101;48.658;2.328;2023-07-24T03:49:00;17.60;99.90
70550;DHT22;58101;48.658;2.328;2023-07-24T03:51:28;17.60;99.90
70550;DHT22;58101;48.658;2.328;2023-07-24T03:53:54;17.60;99.90
70550;DHT22;58101;48.658;2.328;2023-07-24T03:56:20;17.60;99.90
70550;DHT22;58101;48.658;2.328;2023-07-24T03:58:45;17.50;99.90
70550;DHT22;58101;48.658;2.328;2023-07-24T04:01:11;17.50;99.90
70550;DHT22;58101;48.658;2.328;2023-07-24T04:03:37;17.60;99.90
70550;DHT22;58101;48.658;2.328;2023-07-24T04:06:02;17.60;99.90
70550;DHT22;58101;48.658;2.328;2023-07-24T04:08:28;17.60;99.90
70550;DHT22;58101;48.658;2.328;2023-07-24T04:10:53;17.60;99.90
70550;DHT22;58101;48.658;2.328;2023-07-24T04:13:22;17.60;99.90
70550;DHT22;58101;48.658;2.328;2023-07-24T04:15:47;17.60;99.90
70550;DHT22;58101;48.658;2.328;2023-07-24T04:18:13;17.60;99.90
70550;DHT22;58101;48.658;2.328;2023-07-24T04:20:38;17.60;99.90
70550;DHT22;58101;48.658;2.328;2023-07-24T04:23:04;17.60;99.90
70550;DHT22;58101;48.658;2.328;2023-07-24T04:25:30;17.70;99.90
70550;DHT22;58101;48.658;2.328;2023-07-24T04:27:55;17.70;99.90
70550;DHT22;58101;48.658;2.328;2023-07-24T04:30:21;17.70;99.90
70550;DHT22;58101;48.658;2.328;2023-07-24T04:32:46;17.70;99.90
70550;DHT22;58101;48.658;2.328;2023-07-24T04:35:12;17.70;99.90
70550;DHT22;58101;48.658;2.328;2023-07-24T04:37:38;17.60;99.90
70550;DHT22;58101;48.658;2.328;2023-07-24T04:40:04;17.60;99.90
70550;DHT22;58101;48.658;2.328;2023-07-24T04:42:30;17.60;99.90
70550;DHT22;58101;48.658;2.328;2023-07-24T04:44:56;17.60;99.90
70550;DHT22;58101;48.658;2.328;2023-07-24T04:47:21;17.70;99.90
70550;DHT22;58101;48.658;2.328;2023-07-24T04:49:47;17.70;99.90
70550;DHT22;58101;48.658;2.328;2023-07-24T04:52:12;17.70;99.90
70550;DHT22;58101;48.658;2.328;2023-07-24T04:54:38;17.70;99.90
70550;DHT22;58101;48.658;2.328;2023-07-24T04:57:04;17.70;99.90
70550;DHT22;58101;48.658;2.328;2023-07-24T04:59:29;17.70;99.90
70550;DHT22;58101;48.658;2.328;2023-07-24T05:01:55;17.70;99.90
70550;DHT22;58101;48.658;2.328;2023-07-24T05:04:21;17.80;99.90
70550;DHT22;58101;48.658;2.328;2023-07-24T05:06:47;17.80;99.90
70550;DHT22;58101;48.658;2.328;2023-07-24T05:09:12;17.80;99.90
70550;DHT22;58101;48.658;2.328;2023-07-24T05:11:38;17.80;99.90
70550;DHT22;58101;48.658;2.328;2023-07-24T05:14:04;17.80;99.90
70550;DHT22;58101;48.658;2.328;2023-07-24T05:16:29;17.90;99.90
70550;DHT22;58101;48.658;2.328;2023-07-24T05:18:55;17.90;99.90
70550;DHT22;58101;48.658;2.328;2023-07-24T05:21:20;17.90;99.90
70550;DHT22;58101;48.658;2.328;2023-07-24T05:23:46;17.90;99.90
70550;DHT22;58101;48.658;2.328;2023-07-24T05:26:12;18.00;99.90
70550;DHT22;58101;48.658;2.328;2023-07-24T05:28:37;18.00;99.90
70550;DHT22;58101;48.658;2.328;2023-07-24T05:31:04;18.10;99.90
70550;DHT22;58101;48.658;2.328;2023-07-24T05:33:30;18.10;99.90
70550;DHT22;58101;48.658;2.328;2023-07-24T05:36:02;18.30;99.90
70550;DHT22;58101;48.658;2.328;2023-07-24T05:38:29;18.30;99.90
70550;DHT22;58101;48.658;2.328;2023-07-24T05:41:01;18.30;99.90
70550;DHT22;58101;48.658;2.328;2023-07-24T05:43:28;18.30;99.90
70550;DHT22;58101;48.658;2.328;2023-07-24T05:45:56;18.30;99.90
70550;DHT22;58101;48.658;2.328;2023-07-24T05:48:22;18.40;99.90
70550;DHT22;58101;48.658;2.328;2023-07-24T05:50:48;18.40;99.90
70550;DHT22;58101;48.658;2.328;2023-07-24T05:53:14;18.40;99.90
70550;DHT22;58101;48.658;2.328;2023-07-24T05:55:40;18.30;99.90
70550;DHT22;58101;48.658;2.328;2023-07-24T05:58:06;18.30;99.90
70550;DHT22;58101;48.658;2.328;2023-07-24T06:00:32;18.40;99.90
70550;DHT22;58101;48.658;2.328;2023-07-24T06:02:58;18.40;99.90
70550;DHT22;58101;48.658;2.328;2023-07-24T06:05:24;18.40;99.90
70550;DHT22;58101;48.658;2.328;2023-07-24T06:07:49;18.40;99.90
70550;DHT22;58101;48.658;2.328;2023-07-24T06:10:15;18.50;99.90
70550;DHT22;58101;48.658;2.328;2023-07-24T06:12:40;18.40;99.90
70550;DHT22;58101;48.658;2.328;2023-07-24T06:15:06;18.30;99.90
70550;DHT22;58101;48.658;2.328;2023-07-24T06:17:32;18.30;99.90
70550;DHT22;58101;48.658;2.328;2023-07-24T06:19:58;18.30;99.90
70550;DHT22;58101;48.658;2.328;2023-07-24T06:22:24;18.40;99.90
70550;DHT22;58101;48.658;2.328;2023-07-24T06:24:49;18.30;99.90
70550;DHT22;58101;48.658;2.328;2023-07-24T06:27:15;18.30;99.90
70550;DHT22;58101;48.658;2.328;2023-07-24T06:29:41;18.40;99.90
70550;DHT22;58101;48.658;2.328;2023-07-24T06:32:07;18.40;99.90
70550;DHT22;58101;48.658;2.328;2023-07-24T06:34:33;18.50;99.90
70550;DHT22;58101;48.658;2.328;2023-07-24T06:36:59;18.60;99.90
70550;DHT22;58101;48.658;2.328;2023-07-24T06:39:25;18.80;99.90
70550;DHT22;58101;48.658;2.328;2023-07-24T06:41:52;19.00;99.90
70550;DHT22;58101;48.658;2.328;2023-07-24T06:44:17;19.20;99.90
70550;DHT22;58101;48.658;2.328;2023-07-24T06:46:43;19.30;99.90
70550;DHT22;58101;48.658;2.328;2023-07-24T06:49:09;19.30;99.90
70550;DHT22;58101;48.658;2.328;2023-07-24T06:51:35;19.10;99.90
70550;DHT22;58101;48.658;2.328;2023-07-24T06:54:01;19.00;99.90
70550;DHT22;58101;48.658;2.328;2023-07-24T06:56:28;18.80;99.90
70550;DHT22;58101;48.658;2.328;2023-07-24T06:58:53;18.80;99.90
70550;DHT22;58101;48.658;2.328;2023-07-24T07:01:19;18.90;99.90
70550;DHT22;58101;48.658;2.328;2023-07-24T07:03:44;18.90;99.90
70550;DHT22;58101;48.658;2.328;2023-07-24T07:06:10;19.00;99.90
70550;DHT22;58101;48.658;2.328;2023-07-24T07:08:37;19.00;99.90
70550;DHT22;58101;48.658;2.328;2023-07-24T07:11:02;19.00;99.90
70550;DHT22;58101;48.658;2.328;2023-07-24T07:13:28;19.00;99.90
70550;DHT22;58101;48.658;2.328;2023-07-24T07:15:54;19.00;99.90
70550;DHT22;58101;48.658;2.328;2023-07-24T07:18:20;19.10;99.90
70550;DHT22;58101;48.658;2.328;2023-07-24T07:20:50;19.10;99.90
70550;DHT22;58101;48.658;2.328;2023-07-24T07:23:16;19.30;99.90
70550;DHT22;58101;48.658;2.328;2023-07-24T07:25:41;19.30;99.90
70550;DHT22;58101;48.658;2.328;2023-07-24T07:28:14;19.30;99.90
70550;DHT22;58101;48.658;2.328;2023-07-24T07:30:41;19.20;99.90
70550;DHT22;58101;48.658;2.328;2023-07-24T07:33:07;19.20;99.90
70550;DHT22;58101;48.658;2.328;2023-07-24T07:35:33;19.20;99.90
70550;DHT22;58101;48.658;2.328;2023-07-24T07:37:59;19.30;99.90
70550;DHT22;58101;48.658;2.328;2023-07-24T07:40:25;19.30;99.90
70550;DHT22;58101;48.658;2.328;2023-07-24T07:42:55;19.40;99.90
70550;DHT22;58101;48.658;2.328;2023-07-24T07:45:21;19.60;99.90
70550;DHT22;58101;48.658;2.328;2023-07-24T07:47:47;19.70;99.90
70550;DHT22;58101;48.658;2.328;2023-07-24T07:50:12;19.90;99.90
70550;DHT22;58101;48.658;2.328;2023-07-24T07:52:38;20.00;99.90
70550;DHT22;58101;48.658;2.328;2023-07-24T07:55:04;19.80;99.90
70550;DHT22;58101;48.658;2.328;2023-07-24T07:57:37;19.80;99.90
70550;DHT22;58101;48.658;2.328;2023-07-24T08:00:03;19.80;99.90
70550;DHT22;58101;48.658;2.328;2023-07-24T08:02:29;19.90;99.90
70550;DHT22;58101;48.658;2.328;2023-07-24T08:04:55;20.00;99.90
70550;DHT22;58101;48.658;2.328;2023-07-24T08:07:21;20.00;99.70
70550;DHT22;58101;48.658;2.328;2023-07-24T08:09:46;20.20;97.00
70550;DHT22;58101;48.658;2.328;2023-07-24T08:12:12;20.10;96.80
70550;DHT22;58101;48.658;2.328;2023-07-24T08:14:37;20.10;96.60
70550;DHT22;58101;48.658;2.328;2023-07-24T08:17:03;20.20;97.40
70550;DHT22;58101;48.658;2.328;2023-07-24T08:19:29;20.30;96.20
70550;DHT22;58101;48.658;2.328;2023-07-24T08:21:55;20.50;95.70
70550;DHT22;58101;48.658;2.328;2023-07-24T08:24:20;20.60;95.70
70550;DHT22;58101;48.658;2.328;2023-07-24T08:26:46;20.80;90.60
70550;DHT22;58101;48.658;2.328;2023-07-24T08:29:12;20.80;91.00
70550;DHT22;58101;48.658;2.328;2023-07-24T08:31:38;20.80;88.30
70550;DHT22;58101;48.658;2.328;2023-07-24T08:34:03;20.80;82.30
70550;DHT22;58101;48.658;2.328;2023-07-24T08:36:29;20.70;84.80
70550;DHT22;58101;48.658;2.328;2023-07-24T08:38:55;21.00;84.70
70550;DHT22;58101;48.658;2.328;2023-07-24T08:41:21;21.00;79.90
70550;DHT22;58101;48.658;2.328;2023-07-24T08:43:46;21.20;79.40
70550;DHT22;58101;48.658;2.328;2023-07-24T08:46:12;21.40;80.60
70550;DHT22;58101;48.658;2.328;2023-07-24T08:48:39;21.50;78.00
70550;DHT22;58101;48.658;2.328;2023-07-24T08:51:07;21.60;76.20
70550;DHT22;58101;48.658;2.328;2023-07-24T08:53:36;21.60;73.50
70550;DHT22;58101;48.658;2.328;2023-07-24T08:56:07;21.60;74.90
70550;DHT22;58101;48.658;2.328;2023-07-24T08:58:35;21.50;77.50
70550;DHT22;58101;48.658;2.328;2023-07-24T09:01:02;21.70;72.50
70550;DHT22;58101;48.658;2.328;2023-07-24T09:03:28;21.90;71.20
70550;DHT22;58101;48.658;2.328;2023-07-24T09:05:54;21.80;70.80
70550;DHT22;58101;48.658;2.328;2023-07-24T09:08:29;21.80;70.40
70550;DHT22;58101;48.658;2.328;2023-07-24T09:10:56;21.90;68.70
70550;DHT22;58101;48.658;2.328;2023-07-24T09:13:23;21.70;70.40
70550;DHT22;58101;48.658;2.328;2023-07-24T09:15:49;21.70;69.90
70550;DHT22;58101;48.658;2.328;2023-07-24T09:18:14;21.90;69.20
70550;DHT22;58101;48.658;2.328;2023-07-24T09:20:42;22.20;66.50
70550;DHT22;58101;48.658;2.328;2023-07-24T09:23:10;22.60;65.60
70550;DHT22;58101;48.658;2.328;2023-07-24T09:25:37;22.70;64.90
70550;DHT22;58101;48.658;2.328;2023-07-24T09:28:16;23.50;61.90
70550;DHT22;58101;48.658;2.328;2023-07-24T09:30:52;24.20;59.00
70550;DHT22;58101;48.658;2.328;2023-07-24T09:33:18;25.00;55.90
70550;DHT22;58101;48.658;2.328;2023-07-24T09:35:43;25.40;54.20
70550;DHT22;58101;48.658;2.328;2023-07-24T09:38:10;25.90;51.80
70550;DHT22;58101;48.658;2.328;2023-07-24T09:40:42;26.80;48.80
70550;DHT22;58101;48.658;2.328;2023-07-24T09:43:28;26.30;47.50
70550;DHT22;58101;48.658;2.328;2023-07-24T09:45:56;25.80;49.30
70550;DHT22;58101;48.658;2.328;2023-07-24T09:48:26;25.50;49.90
70550;DHT22;58101;48.658;2.328;2023-07-24T09:50:57;26.10;49.80
70550;DHT22;58101;48.658;2.328;2023-07-24T09:56:06;26.30;48.40
70550;DHT22;58101;48.658;2.328;2023-07-24T09:58:34;26.50;46.70
70550;DHT22;58101;48.658;2.328;2023-07-24T10:01:04;25.70;47.80
70550;DHT22;58101;48.658;2.328;2023-07-24T10:03:39;25.50;49.00
70550;DHT22;58101;48.658;2.328;2023-07-24T10:06:05;25.70;49.70
70550;DHT22;58101;48.658;2.328;2023-07-24T10:08:31;25.10;49.10
70550;DHT22;58101;48.658;2.328;2023-07-24T10:10:58;25.30;49.50
70550;DHT22;58101;48.658;2.328;2023-07-24T10:13:26;25.30;50.10
70550;DHT22;58101;48.658;2.328;2023-07-24T10:15:52;25.20;49.60
70550;DHT22;58101;48.658;2.328;2023-07-24T10:18:25;25.40;50.30
70550;DHT22;58101;48.658;2.328;2023-07-24T10:21:00;26.20;49.50
70550;DHT22;58101;48.658;2.328;2023-07-24T10:23:26;26.70;46.20
70550;DHT22;58101;48.658;2.328;2023-07-24T10:25:52;26.80;46.70
70550;DHT22;58101;48.658;2.328;2023-07-24T10:28:18;27.80;45.90
70550;DHT22;58101;48.658;2.328;2023-07-24T10:30:44;28.80;42.80
70550;DHT22;58101;48.658;2.328;2023-07-24T10:33:12;28.90;41.20
70550;DHT22;58101;48.658;2.328;2023-07-24T10:35:46;28.90;40.10
70550;DHT22;58101;48.658;2.328;2023-07-24T10:38:14;29.10;39.80
70550;DHT22;58101;48.658;2.328;2023-07-24T10:40:44;29.00;39.60
70550;DHT22;58101;48.658;2.328;2023-07-24T10:43:13;29.10;40.10
70550;DHT22;58101;48.658;2.328;2023-07-24T10:45:41;29.10;40.70
70550;DHT22;58101;48.658;2.328;2023-07-24T10:48:36;29.40;39.20
70550;DHT22;58101;48.658;2.328;2023-07-24T10:51:09;29.30;38.50
70550;DHT22;58101;48.658;2.328;2023-07-24T10:53:36;28.60;40.00
70550;DHT22;58101;48.658;2.328;2023-07-24T10:56:04;28.40;41.20
70550;DHT22;58101;48.658;2.328;2023-07-24T10:58:31;28.40;41.20
70550;DHT22;58101;48.658;2.328;2023-07-24T11:00:57;28.10;41.50
70550;DHT22;58101;48.658;2.328;2023-07-24T11:03:24;27.80;42.30
70550;DHT22;58101;48.658;2.328;2023-07-24T11:05:50;27.20;42.60
70550;DHT22;58101;48.658;2.328;2023-07-24T11:08:16;27.00;43.60
70550;DHT22;58101;48.658;2.328;2023-07-24T11:10:50;26.50;44.20
70550;DHT22;58101;48.658;2.328;2023-07-24T11:13:17;26.10;45.80
70550;DHT22;58101;48.658;2.328;2023-07-24T11:15:43;26.00;46.50
70550;DHT22;58101;48.658;2.328;2023-07-24T11:18:08;25.90;46.60
70550;DHT22;58101;48.658;2.328;2023-07-24T11:20:45;25.60;46.20
70550;DHT22;58101;48.658;2.328;2023-07-24T11:23:12;25.30;47.50
70550;DHT22;58101;48.658;2.328;2023-07-24T11:25:38;25.70;47.80
70550;DHT22;58101;48.658;2.328;2023-07-24T11:28:09;25.90;45.90
70550;DHT22;58101;48.658;2.328;2023-07-24T11:30:35;26.10;45.70
70550;DHT22;58101;48.658;2.328;2023-07-24T11:33:04;26.40;44.50
70550;DHT22;58101;48.658;2.328;2023-07-24T11:35:31;26.50;44.60
70550;DHT22;58101;48.658;2.328;2023-07-24T11:37:57;27.00;44.00
70550;DHT22;58101;48.658;2.328;2023-07-24T11:42:57;26.80;43.70
70550;DHT22;58101;48.658;2.328;2023-07-24T11:45:23;26.70;43.40
70550;DHT22;58101;48.658;2.328;2023-07-24T11:47:50;26.20;43.40
70550;DHT22;58101;48.658;2.328;2023-07-24T11:50:19;26.30;42.50
70550;DHT22;58101;48.658;2.328;2023-07-24T11:52:48;26.30;42.30
70550;DHT22;58101;48.658;2.328;2023-07-24T11:55:16;26.30;41.90
70550;DHT22;58101;48.658;2.328;2023-07-24T11:57:42;26.00;42.60
70550;DHT22;58101;48.658;2.328;2023-07-24T12:00:20;25.70;43.70
70550;DHT22;58101;48.658;2.328;2023-07-24T12:02:46;25.60;45.30
70550;DHT22;58101;48.658;2.328;2023-07-24T12:05:12;25.50;43.70
70550;DHT22;58101;48.658;2.328;2023-07-24T12:07:38;25.50;43.90
70550;DHT22;58101;48.658;2.328;2023-07-24T12:10:06;25.50;43.90
70550;DHT22;58101;48.658;2.328;2023-07-24T12:12:45;25.30;44.40
70550;DHT22;58101;48.658;2.328;2023-07-24T12:15:11;25.30;46.70
70550;DHT22;58101;48.658;2.328;2023-07-24T12:17:36;25.10;44.90
70550;DHT22;58101;48.658;2.328;2023-07-24T12:20:03;25.10;45.60
70550;DHT22;58101;48.658;2.328;2023-07-24T12:23:05;25.00;46.10
70550;DHT22;58101;48.658;2.328;2023-07-24T12:25:33;25.00;46.90
70550;DHT22;58101;48.658;2.328;2023-07-24T12:28:05;25.20;47.10
70550;DHT22;58101;48.658;2.328;2023-07-24T12:30:30;25.20;46.30
70550;DHT22;58101;48.658;2.328;2023-07-24T12:32:56;25.20;46.70
70550;DHT22;58101;48.658;2.328;2023-07-24T12:35:21;25.10;46.20
70550;DHT22;58101;48.658;2.328;2023-07-24T12:37:47;25.20;46.80
70550;DHT22;58101;48.658;2.328;2023-07-24T12:40:14;25.40;46.40
70550;DHT22;58101;48.658;2.328;2023-07-24T12:42:40;25.60;46.20
70550;DHT22;58101;48.658;2.328;2023-07-24T12:45:06;25.40;45.40
70550;DHT22;58101;48.658;2.328;2023-07-24T12:47:32;25.00;46.60
70550;DHT22;58101;48.658;2.328;2023-07-24T12:49:58;24.70;47.90
70550;DHT22;58101;48.658;2.328;2023-07-24T12:52:25;24.60;48.60
70550;DHT22;58101;48.658;2.328;2023-07-24T12:54:50;24.60;48.40
70550;DHT22;58101;48.658;2.328;2023-07-24T12:57:16;24.90;48.10
70550;DHT22;58101;48.658;2.328;2023-07-24T12:59:42;25.00;47.30
70550;DHT22;58101;48.658;2.328;2023-07-24T13:02:08;25.10;47.10
70550;DHT22;58101;48.658;2.328;2023-07-24T13:04:34;25.10;47.60
70550;DHT22;58101;48.658;2.328;2023-07-24T13:06:59;25.00;47.90
70550;DHT22;58101;48.658;2.328;2023-07-24T13:09:26;24.80;51.40
70550;DHT22;58101;48.658;2.328;2023-07-24T13:11:53;24.50;52.30
70550;DHT22;58101;48.658;2.328;2023-07-24T13:14:20;24.50;51.30
70550;DHT22;58101;48.658;2.328;2023-07-24T13:16:46;24.70;51.10
70550;DHT22;58101;48.658;2.328;2023-07-24T13:19:12;25.10;50.10
70550;DHT22;58101;48.658;2.328;2023-07-24T13:21:41;25.30;48.50
70550;DHT22;58101;48.658;2.328;2023-07-24T13:24:08;25.40;48.70
70550;DHT22;58101;48.658;2.328;2023-07-24T13:26:34;25.60;48.70
70550;DHT22;58101;48.658;2.328;2023-07-24T13:28:59;25.60;48.80
70550;DHT22;58101;48.658;2.328;2023-07-24T13:31:25;25.70;48.40
70550;DHT22;58101;48.658;2.328;2023-07-24T13:33:51;25.70;47.10
70550;DHT22;58101;48.658;2.328;2023-07-24T13:36:16;25.50;47.70
70550;DHT22;58101;48.658;2.328;2023-07-24T13:38:42;25.50;48.00
70550;DHT22;58101;48.658;2.328;2023-07-24T13:41:08;25.40;47.80
70550;DHT22;58101;48.658;2.328;2023-07-24T13:43:34;25.00;48.70
70550;DHT22;58101;48.658;2.328;2023-07-24T13:46:00;24.60;51.00
70550;DHT22;58101;48.658;2.328;2023-07-24T13:48:30;23.90;57.00
70550;DHT22;58101;48.658;2.328;2023-07-24T13:50:56;23.10;63.40
70550;DHT22;58101;48.658;2.328;2023-07-24T13:53:21;22.60;69.30
70550;DHT22;58101;48.658;2.328;2023-07-24T13:55:48;22.10;76.10
70550;DHT22;58101;48.658;2.328;2023-07-24T13:58:13;21.80;80.70
70550;DHT22;58101;48.658;2.328;2023-07-24T14:00:40;21.70;86.00
70550;DHT22;58101;48.658;2.328;2023-07-24T14:03:06;21.60;85.60
70550;DHT22;58101;48.658;2.328;2023-07-24T14:05:33;21.40;89.10
70550;DHT22;58101;48.658;2.328;2023-07-24T14:07:59;21.60;92.00
70550;DHT22;58101;48.658;2.328;2023-07-24T14:10:24;21.60;94.60
70550;DHT22;58101;48.658;2.328;2023-07-24T14:12:50;21.90;95.60
70550;DHT22;58101;48.658;2.328;2023-07-24T14:15:15;22.20;94.30
70550;DHT22;58101;48.658;2.328;2023-07-24T14:17:41;22.50;90.50
70550;DHT22;58101;48.658;2.328;2023-07-24T14:20:07;22.80;86.90
70550;DHT22;58101;48.658;2.328;2023-07-24T14:22:33;23.10;81.60
70550;DHT22;58101;48.658;2.328;2023-07-24T14:24:58;23.10;78.00
70550;DHT22;58101;48.658;2.328;2023-07-24T14:27:24;23.10;76.90
70550;DHT22;58101;48.658;2.328;2023-07-24T14:29:49;23.20;77.20
70550;DHT22;58101;48.658;2.328;2023-07-24T14:32:15;23.50;74.70
70550;DHT22;58101;48.658;2.328;2023-07-24T14:34:41;23.70;71.10
70550;DHT22;58101;48.658;2.328;2023-07-24T14:37:07;23.60;70.40
70550;DHT22;58101;48.658;2.328;2023-07-24T14:39:33;23.50;71.80
70550;DHT22;58101;48.658;2.328;2023-07-24T14:41:58;23.50;73.10
70550;DHT22;58101;48.658;2.328;2023-07-24T14:44:25;23.60;72.90
70550;DHT22;58101;48.658;2.328;2023-07-24T14:46:50;23.60;71.40
70550;DHT22;58101;48.658;2.328;2023-07-24T14:49:16;23.60;69.10
70550;DHT22;58101;48.658;2.328;2023-07-24T14:51:42;23.60;70.20
70550;DHT22;58101;48.658;2.328;2023-07-24T14:54:07;23.50;68.50
70550;DHT22;58101;48.658;2.328;2023-07-24T14:56:33;23.50;70.20
70550;DHT22;58101;48.658;2.328;2023-07-24T14:58:58;23.40;71.80
70550;DHT22;58101;48.658;2.328;2023-07-24T15:01:24;23.20;87.00
70550;DHT22;58101;48.658;2.328;2023-07-24T15:03:53;22.70;96.10
70550;DHT22;58101;48.658;2.328;2023-07-24T15:06:18;22.10;98.30
70550;DHT22;58101;48.658;2.328;2023-07-24T15:08:44;21.80;99.90
70550;DHT22;58101;48.658;2.328;2023-07-24T15:11:10;21.50;99.90
70550;DHT22;58101;48.658;2.328;2023-07-24T15:13:36;21.30;99.90
70550;DHT22;58101;48.658;2.328;2023-07-24T15:16:02;21.30;99.90
70550;DHT22;58101;48.658;2.328;2023-07-24T15:18:28;21.40;99.90
70550;DHT22;58101;48.658;2.328;2023-07-24T15:20:53;21.50;99.90
70550;DHT22;58101;48.658;2.328;2023-07-24T15:23:19;21.70;99.90
70550;DHT22;58101;48.658;2.328;2023-07-24T15:25:45;21.80;99.90
70550;DHT22;58101;48.658;2.328;2023-07-24T15:28:10;21.90;99.90
70550;DHT22;58101;48.658;2.328;2023-07-24T15:30:36;22.10;99.90
70550;DHT22;58101;48.658;2.328;2023-07-24T15:33:02;22.20;99.90
70550;DHT22;58101;48.658;2.328;2023-07-24T15:35:28;22.30;99.90